sensor_id;sensor_type;location;lat;lon;timestamp;P1;durP1;ratioP1;P2;durP2;ratioP2
75297;SDS011;63896;45.990;18.688;2022-10-19T00:00:59;26.95;;;13.63;;
75297;SDS011;63896;45.990;18.688;2022-10-19T00:04:06;27.43;;;14.33;;
75297;SDS011;63896;45.990;18.688;2022-10-19T00:07:10;26.63;;;14.55;;
75297;SDS011;63896;45.990;18.688;2022-10-19T00:10:13;28.13;;;13.95;;
75297;SDS011;63896;45.990;18.688;2022-10-19T00:13:16;29.90;;;15.10;;
75297;SDS011;63896;45.990;18.688;2022-10-19T00:16:19;27.20;;;13.93;;
75297;SDS011;63896;45.990;18.688;2022-10-19T00:19:24;38.13;;;14.87;;
75297;SDS011;63896;45.990;18.688;2022-10-19T00:22:30;28.05;;;14.45;;
75297;SDS011;63896;45.990;18.688;2022-10-19T00:25:33;27.25;;;14.93;;
75297;SDS011;63896;45.990;18.688;2022-10-19T00:28:36;29.00;;;15.48;;
75297;SDS011;63896;45.990;18.688;2022-10-19T00:31:39;28.77;;;15.23;;
75297;SDS011;63896;45.990;18.688;2022-10-19T00:34:42;30.23;;;14.73;;
75297;SDS011;63896;45.990;18.688;2022-10-19T00:37:45;29.98;;;15.55;;
75297;SDS011;63896;45.990;18.688;2022-10-19T00:40:49;31.50;;;16.85;;
75297;SDS011;63896;45.990;18.688;2022-10-19T00:43:59;29.80;;;15.30;;
75297;SDS011;63896;45.990;18.688;2022-10-19T00:47:05;33.00;;;15.97;;
75297;SDS011;63896;45.990;18.688;2022-10-19T00:50:11;33.07;;;16.00;;
75297;SDS011;63896;45.990;18.688;2022-10-19T00:53:15;30.45;;;15.63;;
75297;SDS011;63896;45.990;18.688;2022-10-19T00:56:18;30.77;;;15.95;;
75297;SDS011;63896;45.990;18.688;2022-10-19T00:59:21;29.88;;;15.45;;
75297;SDS011;63896;45.990;18.688;2022-10-19T01:02:26;30.90;;;15.23;;
75297;SDS011;63896;45.990;18.688;2022-10-19T01:05:29;25.13;;;15.93;;
75297;SDS011;63896;45.990;18.688;2022-10-19T01:08:35;27.67;;;15.15;;
75297;SDS011;63896;45.990;18.688;2022-10-19T01:18:21;27.70;;;15.97;;
75297;SDS011;63896;45.990;18.688;2022-10-19T01:25:30;27.15;;;16.05;;
75297;SDS011;63896;45.990;18.688;2022-10-19T01:32:15;28.65;;;16.08;;
75297;SDS011;63896;45.990;18.688;2022-10-19T01:35:45;32.77;;;16.80;;
75297;SDS011;63896;45.990;18.688;2022-10-19T01:39:00;25.77;;;16.47;;
75297;SDS011;63896;45.990;18.688;2022-10-19T01:45:49;26.10;;;15.60;;
75297;SDS011;63896;45.990;18.688;2022-10-19T01:52:42;31.60;;;16.75;;
75297;SDS011;63896;45.990;18.688;2022-10-19T01:55:46;27.17;;;16.40;;
75297;SDS011;63896;45.990;18.688;2022-10-19T01:58:54;28.40;;;16.05;;
75297;SDS011;63896;45.990;18.688;2022-10-19T02:02:00;27.00;;;15.98;;
75297;SDS011;63896;45.990;18.688;2022-10-19T02:05:06;25.55;;;16.45;;
75297;SDS011;63896;45.990;18.688;2022-10-19T02:08:16;29.48;;;15.68;;
75297;SDS011;63896;45.990;18.688;2022-10-19T02:11:24;28.33;;;16.27;;
75297;SDS011;63896;45.990;18.688;2022-10-19T02:14:34;26.48;;;16.08;;
75297;SDS011;63896;45.990;18.688;2022-10-19T02:17:46;27.42;;;15.70;;
75297;SDS011;63896;45.990;18.688;2022-10-19T02:20:53;25.52;;;15.45;;
75297;SDS011;63896;45.990;18.688;2022-10-19T02:23:56;32.13;;;17.15;;
75297;SDS011;63896;45.990;18.688;2022-10-19T02:26:59;29.13;;;17.63;;
75297;SDS011;63896;45.990;18.688;2022-10-19T02:30:07;115.50;;;52.92;;
75297;SDS011;63896;45.990;18.688;2022-10-19T02:33:14;58.35;;;30.42;;
75297;SDS011;63896;45.990;18.688;2022-10-19T02:36:19;31.58;;;17.88;;
75297;SDS011;63896;45.990;18.688;2022-10-19T02:39:22;30.67;;;18.53;;
75297;SDS011;63896;45.990;18.688;2022-10-19T02:42:31;26.87;;;16.53;;
75297;SDS011;63896;45.990;18.688;2022-10-19T02:45:39;26.23;;;14.82;;
75297;SDS011;63896;45.990;18.688;2022-10-19T02:48:48;30.48;;;15.43;;
75297;SDS011;63896;45.990;18.688;2022-10-19T02:51:54;26.27;;;15.25;;
75297;SDS011;63896;45.990;18.688;2022-10-19T02:55:10;34.20;;;16.17;;
75297;SDS011;63896;45.990;18.688;2022-10-19T02:58:13;30.77;;;17.03;;
75297;SDS011;63896;45.990;18.688;2022-10-19T03:01:16;33.72;;;18.45;;
75297;SDS011;63896;45.990;18.688;2022-10-19T03:04:19;40.10;;;19.77;;
75297;SDS011;63896;45.990;18.688;2022-10-19T03:07:22;39.38;;;19.38;;
75297;SDS011;63896;45.990;18.688;2022-10-19T03:10:26;36.60;;;20.08;;
75297;SDS011;63896;45.990;18.688;2022-10-19T03:13:29;30.37;;;16.87;;
75297;SDS011;63896;45.990;18.688;2022-10-19T03:16:31;26.83;;;16.17;;
75297;SDS011;63896;45.990;18.688;2022-10-19T03:19:34;28.08;;;16.30;;
75297;SDS011;63896;45.990;18.688;2022-10-19T03:22:38;28.60;;;15.75;;
75297;SDS011;63896;45.990;18.688;2022-10-19T03:25:40;26.40;;;15.65;;
75297;SDS011;63896;45.990;18.688;2022-10-19T03:28:43;31.00;;;16.70;;
75297;SDS011;63896;45.990;18.688;2022-10-19T03:31:46;29.40;;;16.63;;
75297;SDS011;63896;45.990;18.688;2022-10-19T03:34:49;35.85;;;17.42;;
75297;SDS011;63896;45.990;18.688;2022-10-19T03:37:52;32.88;;;18.80;;
75297;SDS011;63896;45.990;18.688;2022-10-19T03:40:56;36.95;;;19.08;;
75297;SDS011;63896;45.990;18.688;2022-10-19T03:43:59;39.23;;;20.00;;
75297;SDS011;63896;45.990;18.688;2022-10-19T03:47:07;32.88;;;19.15;;
75297;SDS011;63896;45.990;18.688;2022-10-19T03:50:10;33.20;;;17.63;;
75297;SDS011;63896;45.990;18.688;2022-10-19T03:53:15;34.38;;;18.48;;
75297;SDS011;63896;45.990;18.688;2022-10-19T03:56:18;33.50;;;18.60;;
75297;SDS011;63896;45.990;18.688;2022-10-19T03:59:23;25.37;;;15.53;;
75297;SDS011;63896;45.990;18.688;2022-10-19T04:02:26;27.50;;;16.02;;
75297;SDS011;63896;45.990;18.688;2022-10-19T04:05:28;33.50;;;15.90;;
75297;SDS011;63896;45.990;18.688;2022-10-19T04:08:31;32.72;;;15.73;;
75297;SDS011;63896;45.990;18.688;2022-10-19T04:11:34;27.30;;;15.90;;
75297;SDS011;63896;45.990;18.688;2022-10-19T04:14:38;32.47;;;15.17;;
75297;SDS011;63896;45.990;18.688;2022-10-19T04:17:58;24.50;;;15.35;;
75297;SDS011;63896;45.990;18.688;2022-10-19T04:21:02;29.35;;;16.60;;
75297;SDS011;63896;45.990;18.688;2022-10-19T04:24:11;29.58;;;16.60;;
75297;SDS011;63896;45.990;18.688;2022-10-19T04:27:18;30.73;;;15.98;;
75297;SDS011;63896;45.990;18.688;2022-10-19T04:30:22;26.37;;;15.50;;
75297;SDS011;63896;45.990;18.688;2022-10-19T04:33:24;28.33;;;16.50;;
75297;SDS011;63896;45.990;18.688;2022-10-19T04:36:27;30.38;;;17.17;;
75297;SDS011;63896;45.990;18.688;2022-10-19T04:39:30;30.60;;;18.75;;
75297;SDS011;63896;45.990;18.688;2022-10-19T04:42:33;28.93;;;17.67;;
75297;SDS011;63896;45.990;18.688;2022-10-19T04:45:36;28.77;;;17.90;;
75297;SDS011;63896;45.990;18.688;2022-10-19T04:48:39;33.85;;;21.38;;
75297;SDS011;63896;45.990;18.688;2022-10-19T04:51:42;33.63;;;20.60;;
75297;SDS011;63896;45.990;18.688;2022-10-19T04:54:45;38.63;;;20.75;;
75297;SDS011;63896;45.990;18.688;2022-10-19T04:57:48;32.63;;;20.37;;
75297;SDS011;63896;45.990;18.688;2022-10-19T05:00:52;38.23;;;20.47;;
75297;SDS011;63896;45.990;18.688;2022-10-19T05:03:56;36.88;;;20.83;;
75297;SDS011;63896;45.990;18.688;2022-10-19T05:07:00;33.03;;;20.60;;
75297;SDS011;63896;45.990;18.688;2022-10-19T05:10:03;64.90;;;32.58;;
75297;SDS011;63896;45.990;18.688;2022-10-19T05:13:06;47.57;;;26.87;;
75297;SDS011;63896;45.990;18.688;2022-10-19T05:16:10;46.40;;;26.57;;
75297;SDS011;63896;45.990;18.688;2022-10-19T05:19:14;43.63;;;26.27;;
75297;SDS011;63896;45.990;18.688;2022-10-19T05:22:17;38.47;;;21.50;;
75297;SDS011;63896;45.990;18.688;2022-10-19T05:25:19;38.72;;;21.52;;
75297;SDS011;63896;45.990;18.688;2022-10-19T05:28:46;49.13;;;27.73;;
75297;SDS011;63896;45.990;18.688;2022-10-19T05:31:51;50.50;;;28.23;;
75297;SDS011;63896;45.990;18.688;2022-10-19T05:34:57;48.72;;;26.50;;
75297;SDS011;63896;45.990;18.688;2022-10-19T05:38:00;44.35;;;25.42;;
75297;SDS011;63896;45.990;18.688;2022-10-19T05:41:07;46.88;;;26.25;;
75297;SDS011;63896;45.990;18.688;2022-10-19T05:44:21;37.80;;;23.48;;
75297;SDS011;63896;45.990;18.688;2022-10-19T05:47:25;36.47;;;23.37;;
75297;SDS011;63896;45.990;18.688;2022-10-19T05:50:33;42.83;;;22.30;;
75297;SDS011;63896;45.990;18.688;2022-10-19T05:53:36;39.03;;;22.10;;
75297;SDS011;63896;45.990;18.688;2022-10-19T05:56:40;49.60;;;26.40;;
75297;SDS011;63896;45.990;18.688;2022-10-19T05:59:44;51.60;;;26.48;;
75297;SDS011;63896;45.990;18.688;2022-10-19T06:02:47;42.50;;;22.83;;
75297;SDS011;63896;45.990;18.688;2022-10-19T06:05:55;38.90;;;19.63;;
75297;SDS011;63896;45.990;18.688;2022-10-19T06:09:10;27.92;;;17.75;;
75297;SDS011;63896;45.990;18.688;2022-10-19T06:12:18;26.15;;;17.13;;
75297;SDS011;63896;45.990;18.688;2022-10-19T06:15:27;32.60;;;17.45;;
75297;SDS011;63896;45.990;18.688;2022-10-19T06:18:40;35.60;;;19.53;;
75297;SDS011;63896;45.990;18.688;2022-10-19T06:22:00;82.30;;;31.13;;
75297;SDS011;63896;45.990;18.688;2022-10-19T06:25:03;62.30;;;28.40;;
75297;SDS011;63896;45.990;18.688;2022-10-19T06:28:07;33.30;;;18.25;;
75297;SDS011;63896;45.990;18.688;2022-10-19T06:31:18;27.00;;;15.85;;
75297;SDS011;63896;45.990;18.688;2022-10-19T06:34:22;26.63;;;16.27;;
75297;SDS011;63896;45.990;18.688;2022-10-19T06:37:31;28.77;;;16.55;;
75297;SDS011;63896;45.990;18.688;2022-10-19T06:40:39;27.10;;;16.73;;
75297;SDS011;63896;45.990;18.688;2022-10-19T06:43:42;26.35;;;15.75;;
75297;SDS011;63896;45.990;18.688;2022-10-19T06:46:45;29.75;;;16.60;;
75297;SDS011;63896;45.990;18.688;2022-10-19T06:49:48;28.00;;;15.37;;
75297;SDS011;63896;45.990;18.688;2022-10-19T06:52:52;28.45;;;16.58;;
75297;SDS011;63896;45.990;18.688;2022-10-19T06:55:58;24.77;;;15.73;;
75297;SDS011;63896;45.990;18.688;2022-10-19T06:59:10;33.83;;;18.02;;
75297;SDS011;63896;45.990;18.688;2022-10-19T07:02:16;32.78;;;21.55;;
75297;SDS011;63896;45.990;18.688;2022-10-19T07:05:19;38.00;;;21.17;;
75297;SDS011;63896;45.990;18.688;2022-10-19T07:08:23;31.90;;;19.65;;
75297;SDS011;63896;45.990;18.688;2022-10-19T07:11:35;29.15;;;17.55;;
75297;SDS011;63896;45.990;18.688;2022-10-19T07:14:38;27.58;;;17.40;;
75297;SDS011;63896;45.990;18.688;2022-10-19T07:17:41;27.15;;;17.23;;
75297;SDS011;63896;45.990;18.688;2022-10-19T07:20:56;30.57;;;18.60;;
75297;SDS011;63896;45.990;18.688;2022-10-19T07:24:01;40.63;;;21.55;;
75297;SDS011;63896;45.990;18.688;2022-10-19T07:27:04;44.30;;;23.42;;
75297;SDS011;63896;45.990;18.688;2022-10-19T07:30:07;46.72;;;23.58;;
75297;SDS011;63896;45.990;18.688;2022-10-19T07:33:10;41.05;;;22.45;;
75297;SDS011;63896;45.990;18.688;2022-10-19T07:36:13;39.93;;;21.07;;
75297;SDS011;63896;45.990;18.688;2022-10-19T07:39:16;35.38;;;20.17;;
75297;SDS011;63896;45.990;18.688;2022-10-19T07:42:19;32.53;;;19.67;;
75297;SDS011;63896;45.990;18.688;2022-10-19T07:45:26;33.10;;;18.77;;
75297;SDS011;63896;45.990;18.688;2022-10-19T07:48:28;29.75;;;18.52;;
75297;SDS011;63896;45.990;18.688;2022-10-19T07:51:32;29.53;;;18.63;;
75297;SDS011;63896;45.990;18.688;2022-10-19T07:54:35;29.83;;;18.08;;
75297;SDS011;63896;45.990;18.688;2022-10-19T07:57:38;30.58;;;17.35;;
75297;SDS011;63896;45.990;18.688;2022-10-19T08:00:46;23.20;;;15.38;;
75297;SDS011;63896;45.990;18.688;2022-10-19T08:03:53;21.08;;;14.50;;
75297;SDS011;63896;45.990;18.688;2022-10-19T08:07:20;19.40;;;14.33;;
75297;SDS011;63896;45.990;18.688;2022-10-19T08:10:26;21.65;;;14.20;;
75297;SDS011;63896;45.990;18.688;2022-10-19T08:13:33;18.08;;;13.55;;
75297;SDS011;63896;45.990;18.688;2022-10-19T08:16:38;17.75;;;13.38;;
75297;SDS011;63896;45.990;18.688;2022-10-19T08:19:43;16.08;;;12.38;;
75297;SDS011;63896;45.990;18.688;2022-10-19T08:22:47;19.23;;;12.87;;
75297;SDS011;63896;45.990;18.688;2022-10-19T08:25:50;16.33;;;12.10;;
75297;SDS011;63896;45.990;18.688;2022-10-19T08:28:57;16.08;;;12.55;;
75297;SDS011;63896;45.990;18.688;2022-10-19T08:32:01;16.95;;;12.07;;
75297;SDS011;63896;45.990;18.688;2022-10-19T08:35:04;18.35;;;12.13;;
75297;SDS011;63896;45.990;18.688;2022-10-19T08:38:12;14.23;;;11.20;;
75297;SDS011;63896;45.990;18.688;2022-10-19T08:41:32;15.30;;;11.00;;
75297;SDS011;63896;45.990;18.688;2022-10-19T08:44:56;17.02;;;11.27;;
75297;SDS011;63896;45.990;18.688;2022-10-19T08:51:45;13.70;;;10.00;;
75297;SDS011;63896;45.990;18.688;2022-10-19T08:54:56;14.63;;;9.93;;
75297;SDS011;63896;45.990;18.688;2022-10-19T09:04:55;11.48;;;9.45;;
75297;SDS011;63896;45.990;18.688;2022-10-19T09:08:06;13.95;;;8.68;;
75297;SDS011;63896;45.990;18.688;2022-10-19T09:11:18;11.00;;;8.93;;
75297;SDS011;63896;45.990;18.688;2022-10-19T09:21:57;13.93;;;10.10;;
75297;SDS011;63896;45.990;18.688;2022-10-19T09:25:07;9.15;;;8.18;;
75297;SDS011;63896;45.990;18.688;2022-10-19T09:32:11;9.05;;;7.43;;
75297;SDS011;63896;45.990;18.688;2022-10-19T09:35:23;10.73;;;6.95;;
75297;SDS011;63896;45.990;18.688;2022-10-19T09:42:47;9.98;;;5.40;;
75297;SDS011;63896;45.990;18.688;2022-10-19T09:49:43;9.50;;;5.70;;
75297;SDS011;63896;45.990;18.688;2022-10-19T09:52:50;11.85;;;5.60;;
75297;SDS011;63896;45.990;18.688;2022-10-19T09:56:05;7.45;;;5.90;;
75297;SDS011;63896;45.990;18.688;2022-10-19T09:59:17;6.40;;;4.95;;
75297;SDS011;63896;45.990;18.688;2022-10-19T10:02:30;10.60;;;4.70;;
75297;SDS011;63896;45.990;18.688;2022-10-19T10:05:38;11.63;;;6.18;;
75297;SDS011;63896;45.990;18.688;2022-10-19T10:08:46;10.23;;;4.80;;
75297;SDS011;63896;45.990;18.688;2022-10-19T10:11:52;8.30;;;4.68;;
75297;SDS011;63896;45.990;18.688;2022-10-19T10:14:56;6.78;;;4.20;;
75297;SDS011;63896;45.990;18.688;2022-10-19T10:18:02;7.57;;;4.10;;
75297;SDS011;63896;45.990;18.688;2022-10-19T10:21:21;15.25;;;5.82;;
75297;SDS011;63896;45.990;18.688;2022-10-19T10:24:35;11.27;;;4.53;;
75297;SDS011;63896;45.990;18.688;2022-10-19T10:27:38;5.63;;;3.97;;
75297;SDS011;63896;45.990;18.688;2022-10-19T10:30:42;9.93;;;4.25;;
75297;SDS011;63896;45.990;18.688;2022-10-19T10:33:55;9.20;;;3.80;;
75297;SDS011;63896;45.990;18.688;2022-10-19T10:41:14;7.82;;;3.42;;
75297;SDS011;63896;45.990;18.688;2022-10-19T10:44:23;5.72;;;3.20;;
75297;SDS011;63896;45.990;18.688;2022-10-19T10:47:44;6.25;;;2.72;;
75297;SDS011;63896;45.990;18.688;2022-10-19T10:50:50;4.13;;;2.97;;
75297;SDS011;63896;45.990;18.688;2022-10-19T10:54:05;5.05;;;2.60;;
75297;SDS011;63896;45.990;18.688;2022-10-19T10:57:20;8.32;;;2.53;;
75297;SDS011;63896;45.990;18.688;2022-10-19T11:00:30;8.63;;;2.30;;
75297;SDS011;63896;45.990;18.688;2022-10-19T11:03:38;5.13;;;2.40;;
75297;SDS011;63896;45.990;18.688;2022-10-19T11:06:50;1.80;;;1.70;;
75297;SDS011;63896;45.990;18.688;2022-10-19T11:09:59;4.28;;;2.10;;
75297;SDS011;63896;45.990;18.688;2022-10-19T11:13:22;6.50;;;2.10;;
75297;SDS011;63896;45.990;18.688;2022-10-19T11:16:46;3.60;;;1.85;;
75297;SDS011;63896;45.990;18.688;2022-10-19T11:19:54;2.45;;;2.20;;
75297;SDS011;63896;45.990;18.688;2022-10-19T11:23:03;1.80;;;1.60;;
75297;SDS011;63896;45.990;18.688;2022-10-19T11:36:55;4.88;;;2.13;;
75297;SDS011;63896;45.990;18.688;2022-10-19T11:56:18;3.28;;;1.40;;
75297;SDS011;63896;45.990;18.688;2022-10-19T12:03:59;6.88;;;1.98;;
75297;SDS011;63896;45.990;18.688;2022-10-19T12:10:44;8.88;;;1.90;;
75297;SDS011;63896;45.990;18.688;2022-10-19T12:14:07;2.75;;;1.55;;
75297;SDS011;63896;45.990;18.688;2022-10-19T12:17:18;2.70;;;1.60;;
75297;SDS011;63896;45.990;18.688;2022-10-19T12:23:46;4.03;;;1.50;;
75297;SDS011;63896;45.990;18.688;2022-10-19T12:26:50;2.55;;;1.30;;
75297;SDS011;63896;45.990;18.688;2022-10-19T12:30:04;1.55;;;1.20;;
75297;SDS011;63896;45.990;18.688;2022-10-19T12:36:46;3.88;;;0.95;;
75297;SDS011;63896;45.990;18.688;2022-10-19T12:40:04;3.05;;;0.95;;
75297;SDS011;63896;45.990;18.688;2022-10-19T12:43:23;6.60;;;1.30;;
75297;SDS011;63896;45.990;18.688;2022-10-19T12:46:45;1.30;;;1.17;;
75297;SDS011;63896;45.990;18.688;2022-10-19T12:49:55;3.30;;;1.00;;
75297;SDS011;63896;45.990;18.688;2022-10-19T12:52:58;3.20;;;1.40;;
75297;SDS011;63896;45.990;18.688;2022-10-19T12:59:14;1.40;;;1.30;;
75297;SDS011;63896;45.990;18.688;2022-10-19T13:02:28;1.85;;;1.50;;
75297;SDS011;63896;45.990;18.688;2022-10-19T13:05:39;13.20;;;1.60;;
75297;SDS011;63896;45.990;18.688;2022-10-19T13:08:43;7.25;;;1.60;;
75297;SDS011;63896;45.990;18.688;2022-10-19T13:22:23;4.30;;;1.33;;
75297;SDS011;63896;45.990;18.688;2022-10-19T13:28:38;22.25;;;2.00;;
75297;SDS011;63896;45.990;18.688;2022-10-19T13:31:54;6.80;;;1.20;;
75297;SDS011;63896;45.990;18.688;2022-10-19T13:38:26;4.60;;;1.40;;
75297;SDS011;63896;45.990;18.688;2022-10-19T13:44:42;7.95;;;2.10;;
75297;SDS011;63896;45.990;18.688;2022-10-19T13:47:49;1.92;;;1.13;;
75297;SDS011;63896;45.990;18.688;2022-10-19T13:51:04;13.38;;;2.33;;
75297;SDS011;63896;45.990;18.688;2022-10-19T13:54:33;5.27;;;1.50;;
75297;SDS011;63896;45.990;18.688;2022-10-19T14:05:16;4.45;;;1.90;;
75297;SDS011;63896;45.990;18.688;2022-10-19T14:12:25;2.43;;;1.23;;
75297;SDS011;63896;45.990;18.688;2022-10-19T14:15:31;4.32;;;1.67;;
75297;SDS011;63896;45.990;18.688;2022-10-19T14:18:36;4.15;;;2.80;;
75297;SDS011;63896;45.990;18.688;2022-10-19T14:21:39;3.53;;;1.40;;
75297;SDS011;63896;45.990;18.688;2022-10-19T14:24:42;3.10;;;1.65;;
75297;SDS011;63896;45.990;18.688;2022-10-19T14:28:01;2.40;;;1.20;;
75297;SDS011;63896;45.990;18.688;2022-10-19T14:31:08;8.90;;;1.70;;
75297;SDS011;63896;45.990;18.688;2022-10-19T14:34:18;2.65;;;1.50;;
75297;SDS011;63896;45.990;18.688;2022-10-19T14:37:22;3.60;;;1.27;;
75297;SDS011;63896;45.990;18.688;2022-10-19T14:40:32;4.45;;;2.05;;
75297;SDS011;63896;45.990;18.688;2022-10-19T14:43:39;4.37;;;2.30;;
75297;SDS011;63896;45.990;18.688;2022-10-19T14:46:41;4.75;;;1.90;;
75297;SDS011;63896;45.990;18.688;2022-10-19T14:49:49;3.97;;;2.20;;
75297;SDS011;63896;45.990;18.688;2022-10-19T14:52:54;2.90;;;1.58;;
75297;SDS011;63896;45.990;18.688;2022-10-19T14:56:09;3.03;;;1.30;;
75297;SDS011;63896;45.990;18.688;2022-10-19T15:05:34;2.42;;;1.50;;
75297;SDS011;63896;45.990;18.688;2022-10-19T15:08:44;3.47;;;1.70;;
75297;SDS011;63896;45.990;18.688;2022-10-19T15:11:51;6.22;;;2.08;;
75297;SDS011;63896;45.990;18.688;2022-10-19T15:14:56;2.07;;;1.87;;
75297;SDS011;63896;45.990;18.688;2022-10-19T15:21:13;6.82;;;1.88;;
75297;SDS011;63896;45.990;18.688;2022-10-19T15:24:23;6.15;;;2.42;;
75297;SDS011;63896;45.990;18.688;2022-10-19T15:27:33;7.18;;;3.08;;
75297;SDS011;63896;45.990;18.688;2022-10-19T15:30:39;7.00;;;3.63;;
75297;SDS011;63896;45.990;18.688;2022-10-19T15:33:52;6.07;;;3.33;;
75297;SDS011;63896;45.990;18.688;2022-10-19T15:36:58;2.47;;;1.92;;
75297;SDS011;63896;45.990;18.688;2022-10-19T15:40:12;3.50;;;1.65;;
75297;SDS011;63896;45.990;18.688;2022-10-19T15:52:48;5.40;;;2.30;;
75297;SDS011;63896;45.990;18.688;2022-10-19T15:55:51;7.85;;;3.40;;
75297;SDS011;63896;45.990;18.688;2022-10-19T15:58:54;8.05;;;4.15;;
75297;SDS011;63896;45.990;18.688;2022-10-19T16:01:58;9.50;;;4.77;;
75297;SDS011;63896;45.990;18.688;2022-10-19T16:05:01;7.50;;;4.05;;
75297;SDS011;63896;45.990;18.688;2022-10-19T16:08:04;10.07;;;4.40;;
75297;SDS011;63896;45.990;18.688;2022-10-19T16:11:14;12.73;;;5.00;;
75297;SDS011;63896;45.990;18.688;2022-10-19T16:14:18;62.92;;;22.85;;
75297;SDS011;63896;45.990;18.688;2022-10-19T16:17:21;42.83;;;17.70;;
75297;SDS011;63896;45.990;18.688;2022-10-19T16:20:26;40.20;;;16.40;;
75297;SDS011;63896;45.990;18.688;2022-10-19T16:23:30;28.92;;;12.07;;
75297;SDS011;63896;45.990;18.688;2022-10-19T16:26:42;21.77;;;9.43;;
75297;SDS011;63896;45.990;18.688;2022-10-19T16:29:45;18.00;;;8.50;;
75297;SDS011;63896;45.990;18.688;2022-10-19T16:32:48;17.33;;;7.50;;
75297;SDS011;63896;45.990;18.688;2022-10-19T16:35:51;18.38;;;9.43;;
75297;SDS011;63896;45.990;18.688;2022-10-19T16:38:54;20.52;;;11.82;;
75297;SDS011;63896;45.990;18.688;2022-10-19T16:41:57;23.55;;;13.80;;
75297;SDS011;63896;45.990;18.688;2022-10-19T16:45:00;27.20;;;14.93;;
75297;SDS011;63896;45.990;18.688;2022-10-19T16:48:03;25.37;;;14.67;;
75297;SDS011;63896;45.990;18.688;2022-10-19T16:54:11;20.83;;;11.98;;
75297;SDS011;63896;45.990;18.688;2022-10-19T16:57:14;20.15;;;11.55;;
75297;SDS011;63896;45.990;18.688;2022-10-19T17:00:17;18.38;;;9.90;;
75297;SDS011;63896;45.990;18.688;2022-10-19T17:03:21;20.13;;;11.40;;
75297;SDS011;63896;45.990;18.688;2022-10-19T17:06:35;20.67;;;11.18;;
75297;SDS011;63896;45.990;18.688;2022-10-19T17:09:39;16.65;;;9.20;;
75297;SDS011;63896;45.990;18.688;2022-10-19T17:12:44;20.92;;;12.45;;
75297;SDS011;63896;45.990;18.688;2022-10-19T17:15:47;22.52;;;11.82;;
75297;SDS011;63896;45.990;18.688;2022-10-19T17:18:52;12.50;;;6.47;;
75297;SDS011;63896;45.990;18.688;2022-10-19T17:21:56;12.68;;;6.57;;
75297;SDS011;63896;45.990;18.688;2022-10-19T17:25:00;14.85;;;8.00;;
75297;SDS011;63896;45.990;18.688;2022-10-19T17:28:03;11.85;;;7.68;;
75297;SDS011;63896;45.990;18.688;2022-10-19T17:31:10;17.73;;;9.27;;
75297;SDS011;63896;45.990;18.688;2022-10-19T17:34:14;32.20;;;15.33;;
75297;SDS011;63896;45.990;18.688;2022-10-19T17:37:18;77.75;;;28.95;;
75297;SDS011;63896;45.990;18.688;2022-10-19T17:40:31;97.88;;;35.13;;
75297;SDS011;63896;45.990;18.688;2022-10-19T17:43:35;37.35;;;17.10;;
75297;SDS011;63896;45.990;18.688;2022-10-19T17:46:40;17.85;;;11.00;;
75297;SDS011;63896;45.990;18.688;2022-10-19T17:49:43;14.37;;;8.93;;
75297;SDS011;63896;45.990;18.688;2022-10-19T17:52:46;15.10;;;8.88;;
75297;SDS011;63896;45.990;18.688;2022-10-19T17:55:49;15.35;;;8.73;;
75297;SDS011;63896;45.990;18.688;2022-10-19T17:58:52;16.30;;;8.80;;
75297;SDS011;63896;45.990;18.688;2022-10-19T18:01:57;15.95;;;9.23;;
75297;SDS011;63896;45.990;18.688;2022-10-19T18:05:00;19.77;;;10.30;;
75297;SDS011;63896;45.990;18.688;2022-10-19T18:08:04;20.02;;;10.32;;
75297;SDS011;63896;45.990;18.688;2022-10-19T18:11:11;17.80;;;10.10;;
75297;SDS011;63896;45.990;18.688;2022-10-19T18:14:16;19.85;;;10.30;;
75297;SDS011;63896;45.990;18.688;2022-10-19T18:17:19;18.20;;;9.85;;
75297;SDS011;63896;45.990;18.688;2022-10-19T18:20:31;16.43;;;9.27;;
75297;SDS011;63896;45.990;18.688;2022-10-19T18:23:34;17.73;;;8.98;;
75297;SDS011;63896;45.990;18.688;2022-10-19T18:26:39;18.83;;;9.63;;
75297;SDS011;63896;45.990;18.688;2022-10-19T18:29:42;21.40;;;11.63;;
75297;SDS011;63896;45.990;18.688;2022-10-19T18:32:49;28.17;;;13.63;;
75297;SDS011;63896;45.990;18.688;2022-10-19T18:35:55;22.80;;;11.83;;
75297;SDS011;63896;45.990;18.688;2022-10-19T18:39:01;23.50;;;12.15;;
75297;SDS011;63896;45.990;18.688;2022-10-19T18:42:06;18.73;;;10.65;;
75297;SDS011;63896;45.990;18.688;2022-10-19T18:45:09;21.35;;;9.73;;
75297;SDS011;63896;45.990;18.688;2022-10-19T18:48:12;13.25;;;7.32;;
75297;SDS011;63896;45.990;18.688;2022-10-19T18:51:16;12.60;;;6.60;;
75297;SDS011;63896;45.990;18.688;2022-10-19T18:54:19;10.68;;;6.50;;
75297;SDS011;63896;45.990;18.688;2022-10-19T18:57:22;10.00;;;5.95;;
75297;SDS011;63896;45.990;18.688;2022-10-19T19:00:34;9.77;;;6.00;;
75297;SDS011;63896;45.990;18.688;2022-10-19T19:03:39;10.30;;;5.80;;
75297;SDS011;63896;45.990;18.688;2022-10-19T19:06:44;11.53;;;5.70;;
75297;SDS011;63896;45.990;18.688;2022-10-19T19:09:48;10.73;;;5.82;;
75297;SDS011;63896;45.990;18.688;2022-10-19T19:12:51;7.85;;;5.75;;
75297;SDS011;63896;45.990;18.688;2022-10-19T19:15:55;11.52;;;5.93;;
75297;SDS011;63896;45.990;18.688;2022-10-19T19:18:59;11.60;;;6.80;;
75297;SDS011;63896;45.990;18.688;2022-10-19T19:22:02;16.87;;;7.60;;
75297;SDS011;63896;45.990;18.688;2022-10-19T19:25:10;11.93;;;7.53;;
75297;SDS011;63896;45.990;18.688;2022-10-19T19:28:13;16.05;;;6.53;;
75297;SDS011;63896;45.990;18.688;2022-10-19T19:31:16;10.88;;;6.35;;
75297;SDS011;63896;45.990;18.688;2022-10-19T19:34:21;15.38;;;5.95;;
75297;SDS011;63896;45.990;18.688;2022-10-19T19:37:23;9.00;;;5.90;;
75297;SDS011;63896;45.990;18.688;2022-10-19T19:40:33;13.10;;;7.30;;
75297;SDS011;63896;45.990;18.688;2022-10-19T19:43:36;10.73;;;6.50;;
75297;SDS011;63896;45.990;18.688;2022-10-19T19:46:39;8.82;;;5.60;;
75297;SDS011;63896;45.990;18.688;2022-10-19T19:49:42;9.38;;;5.68;;
75297;SDS011;63896;45.990;18.688;2022-10-19T19:52:47;8.73;;;5.40;;
75297;SDS011;63896;45.990;18.688;2022-10-19T19:55:50;11.20;;;6.13;;
75297;SDS011;63896;45.990;18.688;2022-10-19T19:58:54;11.32;;;6.07;;
75297;SDS011;63896;45.990;18.688;2022-10-19T20:01:59;11.70;;;6.40;;
75297;SDS011;63896;45.990;18.688;2022-10-19T20:05:03;9.38;;;5.93;;
75297;SDS011;63896;45.990;18.688;2022-10-19T20:08:07;13.40;;;7.53;;
75297;SDS011;63896;45.990;18.688;2022-10-19T20:11:11;10.35;;;6.07;;
75297;SDS011;63896;45.990;18.688;2022-10-19T20:14:15;9.55;;;5.47;;
75297;SDS011;63896;45.990;18.688;2022-10-19T20:17:20;10.95;;;6.30;;
75297;SDS011;63896;45.990;18.688;2022-10-19T20:20:28;12.23;;;6.38;;
75297;SDS011;63896;45.990;18.688;2022-10-19T20:23:33;12.00;;;6.40;;
75297;SDS011;63896;45.990;18.688;2022-10-19T20:26:36;9.80;;;5.70;;
75297;SDS011;63896;45.990;18.688;2022-10-19T20:29:41;8.70;;;5.00;;
75297;SDS011;63896;45.990;18.688;2022-10-19T20:32:45;8.82;;;5.53;;
75297;SDS011;63896;45.990;18.688;2022-10-19T20:35:49;10.85;;;6.03;;
75297;SDS011;63896;45.990;18.688;2022-10-19T20:38:54;9.90;;;5.77;;
75297;SDS011;63896;45.990;18.688;2022-10-19T20:42:00;11.45;;;5.80;;